Time;durP1;ratioP1;P1;durP2;ratioP2;P2;SDS_P1;SDS_P2;PMS_P1;PMS_P2;Temp;Humidity;BMP_temperature;BMP_pressure;BME280_temperature;BME280_humidity;BME280_pressure;Samples;Min_cycle;Max_cycle;Signal;HPM_P1;HPM_P2
2022/07/06 00:01:45;;;;;;;19.38;6.10;;;;;;;11.46;100.00;102409.66;5053981;28;20028;-67
2022/07/06 00:04:11;;;;;;;18.38;6.07;;;;;;;11.47;100.00;102414.06;5054023;28;20025;-65
2022/07/06 00:06:36;;;;;;;18.35;6.18;;;;;;;11.57;100.00;102409.91;5053813;28;20033;-65
2022/07/06 00:09:02;;;;;;;17.77;5.93;;;;;;;11.65;100.00;102407.50;5053714;28;20094;-65
2022/07/06 00:11:28;;;;;;;17.58;6.35;;;;;;;11.68;100.00;102399.59;5053727;28;20123;-65
2022/07/06 00:13:53;;;;;;;18.70;6.28;;;;;;;11.64;100.00;102403.03;5053728;28;20057;-67
2022/07/06 00:16:19;;;;;;;17.25;6.03;;;;;;;11.66;100.00;102417.19;5053635;28;20078;-65
2022/07/06 00:18:45;;;;;;;18.17;6.30;;;;;;;11.56;100.00;102415.19;5053767;28;20439;-64
2022/07/06 00:21:10;;;;;;;16.92;5.88;;;;;;;11.50;100.00;102407.97;5053289;28;20090;-66
2022/07/06 00:23:36;;;;;;;17.70;6.18;;;;;;;11.39;100.00;102412.09;5053395;28;20025;-65
2022/07/06 00:26:02;;;;;;;18.05;6.25;;;;;;;11.33;100.00;102416.38;5053518;28;20029;-65
2022/07/06 00:28:27;;;;;;;18.40;6.45;;;;;;;11.28;100.00;102417.13;5053346;28;20025;-65
2022/07/06 00:30:53;;;;;;;20.52;6.70;;;;;;;11.24;100.00;102413.50;5053339;28;20535;-65
2022/07/06 00:33:19;;;;;;;18.48;6.00;;;;;;;11.25;100.00;102406.44;5053510;28;20092;-65
2022/07/06 00:35:44;;;;;;;18.35;6.40;;;;;;;11.26;100.00;102413.56;5053204;28;20119;-66
2022/07/06 00:38:09;;;;;;;17.20;6.15;;;;;;;11.22;100.00;102419.59;5052948;28;20056;-65
2022/07/06 00:40:35;;;;;;;17.48;6.22;;;;;;;11.15;100.00;102415.88;5053454;28;20036;-67
2022/07/06 00:43:00;;;;;;;17.00;6.35;;;;;;;11.19;100.00;102412.47;5052981;28;20596;-65
2022/07/06 00:45:26;;;;;;;18.58;6.25;;;;;;;11.21;100.00;102418.69;5053078;28;20036;-66
2022/07/06 00:47:52;;;;;;;19.05;6.30;;;;;;;11.08;100.00;102424.50;5053135;28;20025;-68
2022/07/06 00:50:20;;;;;;;18.63;6.55;;;;;;;11.07;100.00;102420.09;5051772;28;20087;-69
2022/07/06 00:52:48;;;;;;;18.63;6.18;;;;;;;11.05;100.00;102422.66;5052684;28;20372;-65
2022/07/06 00:55:15;;;;;;;19.02;6.28;;;;;;;11.05;100.00;102413.84;5052832;28;20502;-65
2022/07/06 00:57:41;;;;;;;17.20;5.80;;;;;;;11.00;100.00;102419.03;5052841;28;20029;-66
2022/07/06 01:00:09;;;;;;;20.92;6.50;;;;;;;10.92;100.00;102412.59;5052751;28;20078;-66
2022/07/06 01:02:36;;;;;;;18.80;6.70;;;;;;;10.88;100.00;102416.03;5052702;28;20402;-65
2022/07/06 01:05:03;;;;;;;18.70;6.50;;;;;;;10.87;100.00;102416.91;5052425;28;20023;-63
2022/07/06 01:07:30;;;;;;;19.15;6.43;;;;;;;10.82;100.00;102412.38;5052809;28;20135;-63
2022/07/06 01:09:55;;;;;;;18.52;6.97;;;;;;;10.84;100.00;102414.16;5049039;28;20029;-64
2022/07/06 01:12:21;;;;;;;20.20;6.43;;;;;;;10.81;100.00;102412.31;5052552;28;20039;-63
2022/07/06 01:14:47;;;;;;;18.63;6.72;;;;;;;10.73;100.00;102401.53;5052462;28;20108;-64
2022/07/06 01:17:13;;;;;;;17.80;6.60;;;;;;;10.76;100.00;102416.56;5052776;28;20131;-63
2022/07/06 01:19:39;;;;;;;19.02;6.70;;;;;;;10.72;100.00;102409.44;5052426;28;20033;-64
2022/07/06 01:22:05;;;;;;;19.70;6.90;;;;;;;10.63;100.00;102410.94;5052361;28;20127;-64
2022/07/06 01:24:30;;;;;;;18.17;6.60;;;;;;;10.57;100.00;102410.78;5052485;28;20107;-64
2022/07/06 01:26:56;;;;;;;20.55;6.88;;;;;;;10.63;100.00;102405.66;5052566;28;20024;-64
2022/07/06 01:29:21;;;;;;;17.95;6.72;;;;;;;10.57;100.00;102416.06;5052689;28;20021;-64
2022/07/06 01:31:48;;;;;;;19.67;7.30;;;;;;;10.56;100.00;102418.66;5052482;28;20108;-64
2022/07/06 01:34:15;;;;;;;19.52;7.57;;;;;;;10.41;100.00;102414.72;5052346;28;20025;-63
2022/07/06 01:36:40;;;;;;;18.73;7.00;;;;;;;10.47;100.00;102408.72;5052246;28;20024;-64
2022/07/06 01:39:08;;;;;;;19.08;7.07;;;;;;;10.43;100.00;102415.63;5052385;28;20021;-64
2022/07/06 01:41:33;;;;;;;19.88;7.18;;;;;;;10.42;100.00;102412.94;5052229;28;20037;-63
2022/07/06 01:43:58;;;;;;;19.83;7.00;;;;;;;10.40;100.00;102410.25;5052299;28;20021;-64
2022/07/06 01:46:23;;;;;;;18.73;7.00;;;;;;;10.38;100.00;102411.97;5052366;28;20063;-64
2022/07/06 01:48:49;;;;;;;21.42;7.70;;;;;;;10.37;100.00;102410.19;5052138;28;20029;-64
2022/07/06 01:51:14;;;;;;;19.25;7.68;;;;;;;10.39;100.00;102408.47;5052341;28;20071;-68
2022/07/06 01:53:39;;;;;;;19.73;7.70;;;;;;;10.32;100.00;102413.50;5051842;28;20028;-69
2022/07/06 01:56:05;;;;;;;19.63;7.15;;;;;;;10.30;100.00;102408.16;5052202;28;20114;-69
2022/07/06 01:58:31;;;;;;;19.85;7.85;;;;;;;10.14;100.00;102411.19;5052356;28;20021;-67
2022/07/06 02:00:56;;;;;;;20.70;7.47;;;;;;;10.15;100.00;102411.25;5052158;28;20033;-69
2022/07/06 02:03:22;;;;;;;18.88;7.35;;;;;;;10.22;100.00;102415.88;5052143;28;20024;-64
2022/07/06 02:05:47;;;;;;;18.98;7.40;;;;;;;10.11;100.00;102404.94;5052549;28;20021;-65
2022/07/06 02:08:12;;;;;;;20.30;7.85;;;;;;;10.14;100.00;102416.47;5052276;28;20521;-65
2022/07/06 02:10:38;;;;;;;20.08;7.70;;;;;;;10.13;100.00;102407.63;5061248;28;20060;-65
2022/07/06 02:13:03;;;;;;;19.88;7.95;;;;;;;10.10;100.00;102419.00;5062519;28;20080;-65
2022/07/06 02:15:28;;;;;;;19.15;7.88;;;;;;;10.16;100.00;102420.06;5063440;28;20033;-65
2022/07/06 02:17:54;;;;;;;20.05;8.15;;;;;;;10.00;100.00;102419.56;5063594;28;20107;-64
2022/07/06 02:20:19;;;;;;;23.88;9.30;;;;;;;9.87;100.00;102420.03;5056205;28;20056;-69
2022/07/06 02:22:44;;;;;;;21.80;8.90;;;;;;;9.85;100.00;102416.44;5055995;28;20518;-66
2022/07/06 02:25:10;;;;;;;21.65;8.82;;;;;;;9.69;100.00;102415.94;5055940;28;20031;-65
2022/07/06 02:27:35;;;;;;;20.70;8.88;;;;;;;9.60;100.00;102413.88;5055650;28;20029;-65
2022/07/06 02:30:00;;;;;;;21.40;8.77;;;;;;;9.64;100.00;102414.91;5055514;28;20032;-65
2022/07/06 02:32:25;;;;;;;21.92;8.57;;;;;;;9.63;100.00;102415.72;5055716;28;20032;-65
2022/07/06 02:34:52;;;;;;;21.92;8.60;;;;;;;9.62;100.00;102405.13;5055416;28;20027;-64
2022/07/06 02:37:17;;;;;;;20.88;8.95;;;;;;;9.58;100.00;102410.31;5055490;28;20025;-65
2022/07/06 02:39:43;;;;;;;22.10;9.55;;;;;;;9.50;100.00;102405.63;5055566;28;20410;-65
2022/07/06 02:42:08;;;;;;;20.88;8.98;;;;;;;9.45;100.00;102413.38;5055088;28;20136;-65
2022/07/06 02:44:33;;;;;;;23.40;8.68;;;;;;;9.43;100.00;102407.13;5055441;28;20040;-65
2022/07/06 02:46:59;;;;;;;21.75;9.38;;;;;;;9.43;100.00;102410.66;5055482;28;20025;-64
2022/07/06 02:49:24;;;;;;;20.77;9.30;;;;;;;9.40;100.00;102413.19;5055164;28;20032;-64
2022/07/06 02:51:49;;;;;;;22.05;9.60;;;;;;;9.37;100.00;102407.81;5055149;28;20029;-64
2022/07/06 02:54:15;;;;;;;21.50;9.63;;;;;;;9.45;100.00;102415.09;5055102;28;20072;-64
2022/07/06 02:56:41;;;;;;;21.52;9.68;;;;;;;9.41;100.00;102416.75;5054962;28;20017;-65
2022/07/06 02:59:06;;;;;;;21.88;9.40;;;;;;;9.41;100.00;102420.28;5055437;28;20021;-64
2022/07/06 03:01:31;;;;;;;22.52;9.50;;;;;;;9.44;100.00;102416.88;5053664;28;20028;-64
2022/07/06 03:03:57;;;;;;;21.45;9.18;;;;;;;9.46;100.00;102424.84;5054942;28;20032;-64
2022/07/06 03:06:22;;;;;;;22.00;9.55;;;;;;;9.41;100.00;102419.41;5055413;28;20133;-65
2022/07/06 03:08:47;;;;;;;22.92;9.85;;;;;;;9.43;100.00;102418.59;5055091;28;20029;-65
2022/07/06 03:11:13;;;;;;;21.77;9.60;;;;;;;9.45;100.00;102423.94;5053765;28;20116;-64
2022/07/06 03:13:38;;;;;;;22.58;9.55;;;;;;;9.49;100.00;102422.28;5054728;28;20025;-64
2022/07/06 03:16:03;;;;;;;21.83;9.93;;;;;;;9.47;100.00;102416.97;5054929;28;20025;-64
2022/07/06 03:18:29;;;;;;;21.33;9.50;;;;;;;9.48;100.00;102421.41;5054654;28;20032;-64
2022/07/06 03:20:54;;;;;;;22.08;9.70;;;;;;;9.49;100.00;102422.28;5054903;28;20069;-64
2022/07/06 03:23:19;;;;;;;20.83;9.43;;;;;;;9.46;100.00;102427.47;5054571;28;20017;-64
2022/07/06 03:25:46;;;;;;;21.15;9.80;;;;;;;9.46;100.00;102428.34;5054433;28;20032;-64
2022/07/06 03:28:11;;;;;;;21.10;9.30;;;;;;;9.51;100.00;102431.16;5054514;28;20398;-66
2022/07/06 03:30:36;;;;;;;21.23;9.40;;;;;;;9.45;100.00;102425.66;5054667;28;20021;-67
2022/07/06 03:33:02;;;;;;;22.25;9.63;;;;;;;9.39;100.00;102434.28;5054872;28;20025;-65
2022/07/06 03:35:27;;;;;;;21.52;9.30;;;;;;;9.37;100.00;102426.31;5054417;28;20032;-65
2022/07/06 03:37:53;;;;;;;21.95;9.43;;;;;;;9.34;100.00;102418.28;5054243;28;20116;-65
2022/07/06 03:40:18;;;;;;;22.85;9.77;;;;;;;9.34;100.00;102423.56;5054671;28;20112;-66
2022/07/06 03:42:44;;;;;;;22.10;10.07;;;;;;;9.41;100.00;102420.28;5054456;28;20033;-66
2022/07/06 03:45:09;;;;;;;21.13;9.20;;;;;;;9.42;100.00;102422.09;5055259;28;20021;-65
2022/07/06 03:47:35;;;;;;;23.33;10.10;;;;;;;9.52;100.00;102428.59;5054958;28;20440;-65
2022/07/06 03:50:00;;;;;;;21.80;9.70;;;;;;;9.52;100.00;102423.31;5054980;28;20043;-66
2022/07/06 03:52:25;;;;;;;21.40;9.85;;;;;;;9.49;100.00;102424.94;5054431;28;20051;-68
2022/07/06 03:54:51;;;;;;;21.52;9.80;;;;;;;9.39;100.00;102426.34;5054105;28;20114;-66
2022/07/06 03:57:16;;;;;;;22.10;10.20;;;;;;;9.35;100.00;102429.72;5054206;28;20028;-65
2022/07/06 03:59:42;;;;;;;23.45;10.43;;;;;;;9.28;100.00;102426.00;5054077;28;20448;-66
2022/07/06 04:02:07;;;;;;;22.25;9.98;;;;;;;9.27;100.00;102420.66;5053864;28;20116;-66
2022/07/06 04:04:36;;;;;;;22.85;10.43;;;;;;;9.22;100.00;102421.41;5053609;28;20249;-65
2022/07/06 04:07:01;;;;;;;22.95;10.48;;;;;;;9.29;100.00;102424.25;5053847;28;20417;-64
2022/07/06 04:09:26;;;;;;;21.75;10.15;;;;;;;9.34;100.00;102422.66;5054246;28;20029;-63
2022/07/06 04:11:52;;;;;;;22.65;10.63;;;;;;;9.37;100.00;102428.94;5053649;28;20484;-63
2022/07/06 04:14:18;;;;;;;22.38;10.10;;;;;;;9.38;100.00;102419.31;5053655;28;20025;-63
2022/07/06 04:16:43;;;;;;;24.58;10.20;;;;;;;9.50;100.00;102424.09;5053473;28;20048;-63
2022/07/06 04:19:08;;;;;;;22.17;10.30;;;;;;;9.49;100.00;102415.25;5053572;28;20051;-64
2022/07/06 04:21:34;;;;;;;22.48;10.20;;;;;;;9.49;100.00;102424.94;5053517;28;20029;-64
2022/07/06 04:23:59;;;;;;;23.85;10.07;;;;;;;9.49;100.00;102414.38;5053507;28;20025;-64
2022/07/06 04:26:25;;;;;;;22.60;9.88;;;;;;;9.50;100.00;102409.16;5053633;28;20017;-64
2022/07/06 04:28:50;;;;;;;21.33;10.00;;;;;;;9.52;100.00;102404.84;5053484;28;20025;-63
2022/07/06 04:31:16;;;;;;;20.92;9.52;;;;;;;9.58;100.00;102407.66;5053155;28;20023;-63
2022/07/06 04:33:45;;;;;;;22.40;10.50;;;;;;;9.59;100.00;102416.47;5053337;28;20100;-64
2022/07/06 04:36:10;;;;;;;23.25;10.00;;;;;;;9.67;100.00;102406.16;5053256;28;20025;-64
2022/07/06 04:38:36;;;;;;;26.38;9.90;;;;;;;9.73;100.00;102412.56;5052639;28;20079;-63
2022/07/06 04:41:01;;;;;;;22.58;10.05;;;;;;;9.83;100.00;102407.56;5052984;28;20112;-63
2022/07/06 04:43:26;;;;;;;24.00;10.07;;;;;;;9.89;100.00;102419.22;5049439;28;20036;-64
2022/07/06 04:45:52;;;;;;;22.52;10.00;;;;;;;9.95;100.00;102407.97;5053183;28;20028;-63
2022/07/06 04:48:17;;;;;;;22.52;10.43;;;;;;;10.06;100.00;102418.84;5052827;28;20048;-64
2022/07/06 04:50:43;;;;;;;22.48;10.10;;;;;;;10.07;100.00;102413.63;5053191;28;20021;-64
2022/07/06 04:53:08;;;;;;;22.30;9.75;;;;;;;10.10;100.00;102416.34;5052975;28;20601;-65
2022/07/06 04:55:33;;;;;;;23.55;9.93;;;;;;;10.19;100.00;102417.50;5053082;28;20045;-64
2022/07/06 04:57:59;;;;;;;21.02;9.98;;;;;;;10.28;100.00;102418.69;5053983;28;20383;-64
2022/07/06 05:00:24;;;;;;;21.65;9.88;;;;;;;10.35;100.00;102419.78;5052713;28;20071;-64
2022/07/06 05:02:49;;;;;;;20.95;9.40;;;;;;;10.44;100.00;102417.44;5053019;28;20438;-64
2022/07/06 05:05:15;;;;;;;21.60;9.75;;;;;;;10.56;100.00;102414.25;5052784;28;20032;-64
2022/07/06 05:07:40;;;;;;;22.95;9.38;;;;;;;10.65;100.00;102413.63;5052958;28;20471;-64
2022/07/06 05:10:10;;;;;;;21.17;9.23;;;;;;;10.71;100.00;102418.22;5053876;28;20060;-65
2022/07/06 05:12:35;;;;;;;22.15;9.30;;;;;;;10.86;100.00;102423.03;5053718;28;20055;-64
2022/07/06 05:15:01;;;;;;;21.75;9.02;;;;;;;10.97;100.00;102424.22;5055484;28;20025;-64
2022/07/06 05:17:26;;;;;;;21.17;9.02;;;;;;;11.08;100.00;102429.81;5054243;28;20029;-64
2022/07/06 05:19:52;;;;;;;20.40;8.75;;;;;;;11.24;100.00;102428.47;5052430;28;20029;-64
2022/07/06 05:22:17;;;;;;;22.38;9.00;;;;;;;11.38;100.00;102429.75;5052616;28;20033;-64
2022/07/06 05:24:43;;;;;;;23.38;8.48;;;;;;;11.49;100.00;102433.56;5052579;28;20021;-64
2022/07/06 05:27:08;;;;;;;21.45;8.48;;;;;;;11.57;100.00;102432.88;5052412;28;20035;-64
2022/07/06 05:29:33;;;;;;;21.27;8.63;;;;;;;11.69;100.00;102430.50;5052414;28;20514;-64
2022/07/06 05:31:59;;;;;;;22.70;7.90;;;;;;;11.79;100.00;102432.53;5052448;28;20438;-64
2022/07/06 05:34:24;;;;;;;20.25;7.75;;;;;;;11.94;100.00;102436.44;5052574;28;20021;-65
2022/07/06 05:36:49;;;;;;;20.73;7.95;;;;;;;12.06;100.00;102434.09;5048230;28;20035;-66
2022/07/06 05:39:19;;;;;;;20.20;7.43;;;;;;;12.20;100.00;102435.31;5049633;28;20033;-67
2022/07/06 05:41:45;;;;;;;19.85;7.30;;;;;;;12.34;100.00;102432.97;5050253;28;20479;-69
2022/07/06 05:44:10;;;;;;;20.58;6.95;;;;;;;12.45;100.00;102438.53;5048960;28;20391;-67
2022/07/06 05:46:36;;;;;;;19.40;6.70;;;;;;;12.55;100.00;102439.59;5050668;28;20055;-67
2022/07/06 05:51:45;;;;;;;19.13;7.20;;;;;;;12.79;100.00;102441.88;5051130;28;20044;-68
2022/07/06 05:54:10;;;;;;;19.10;6.60;;;;;;;12.88;100.00;102442.06;5054334;28;20041;-68
2022/07/06 05:56:35;;;;;;;20.17;6.82;;;;;;;13.00;100.00;102444.06;5054502;28;20064;-68
2022/07/06 05:59:01;;;;;;;18.02;6.30;;;;;;;13.16;100.00;102444.38;5054631;28;20059;-67
2022/07/06 06:01:26;;;;;;;19.42;5.68;;;;;;;13.27;100.00;102444.59;5054586;28;20041;-70
2022/07/06 06:03:51;;;;;;;17.83;5.55;;;;;;;13.37;100.00;102446.59;5053783;28;20052;-68
2022/07/06 06:06:17;;;;;;;16.70;5.43;;;;;;;13.50;100.00;102448.59;5054231;28;20688;-67
2022/07/06 06:08:42;;;;;;;17.45;5.20;;;;;;;13.63;100.00;102455.00;5054531;28;20034;-67
2022/07/06 06:11:07;;;;;;;13.27;4.30;;;;;;;13.68;100.00;102452.44;5054264;28;20025;-67
2022/07/06 06:13:33;;;;;;;14.00;3.92;;;;;;;13.75;100.00;102459.63;5054288;28;20109;-68
2022/07/06 06:15:58;;;;;;;13.48;4.28;;;;;;;13.77;100.00;102452.56;5054189;28;20025;-68
2022/07/06 06:18:24;;;;;;;15.18;4.20;;;;;;;13.73;100.00;102450.72;5053644;28;20098;-68
2022/07/06 06:20:49;;;;;;;14.18;4.10;;;;;;;13.67;100.00;102455.94;5053820;28;20057;-66
2022/07/06 06:23:14;;;;;;;15.50;4.00;;;;;;;13.62;100.00;102450.56;5053923;28;20029;-67
2022/07/06 06:25:40;;;;;;;12.07;3.88;;;;;;;13.69;100.00;102451.53;5053827;28;20025;-68
2022/07/06 06:28:07;;;;;;;11.60;3.88;;;;;;;13.80;100.00;102457.94;5054038;28;20032;-67
2022/07/06 06:30:33;;;;;;;12.88;3.70;;;;;;;13.97;100.00;102454.69;5053915;28;20047;-70
2022/07/06 06:33:10;;;;;;;11.55;3.60;;;;;;;14.18;100.00;102454.97;5053108;28;20119;-69
2022/07/06 06:35:36;;;;;;;14.45;3.50;;;;;;;14.31;100.00;102456.06;5052670;28;20458;-64
2022/07/06 06:38:01;;;;;;;9.10;3.13;;;;;;;14.41;100.00;102451.78;5051290;28;20017;-67
2022/07/06 06:40:27;;;;;;;11.10;3.30;;;;;;;14.50;100.00;102457.19;5052322;28;20434;-67
2022/07/06 06:42:52;;;;;;;12.13;3.47;;;;;;;14.57;100.00;102455.53;5053527;28;20071;-66
2022/07/06 06:45:18;;;;;;;13.90;3.60;;;;;;;14.64;100.00;102452.13;5053373;28;20048;-66
2022/07/06 06:47:43;;;;;;;13.63;3.60;;;;;;;14.69;100.00;102457.50;5053296;28;20443;-66
2022/07/06 06:50:08;;;;;;;12.32;3.40;;;;;;;14.74;100.00;102461.13;5053461;28;20032;-66
2022/07/06 06:52:34;;;;;;;11.10;3.30;;;;;;;14.73;100.00;102460.22;5054335;28;20029;-65
2022/07/06 06:54:59;;;;;;;11.25;3.40;;;;;;;14.70;100.00;102459.28;5053316;28;20056;-64
2022/07/06 06:57:25;;;;;;;11.23;3.40;;;;;;;14.64;100.00;102468.97;5054095;28;20029;-66
2022/07/06 06:59:50;;;;;;;14.95;3.55;;;;;;;14.59;100.00;102468.00;5053502;28;20071;-64
2022/07/06 07:02:15;;;;;;;12.85;3.40;;;;;;;14.54;100.00;102464.38;5054439;28;20017;-65
2022/07/06 07:04:41;;;;;;;11.20;3.25;;;;;;;14.47;100.00;102468.72;5055232;28;20029;-66
2022/07/06 07:07:06;;;;;;;10.20;3.20;;;;;;;14.39;100.00;102470.38;5055192;28;20029;-67
2022/07/06 07:09:31;;;;;;;9.57;3.00;;;;;;;14.27;100.00;102471.09;5055116;28;20104;-66
2022/07/06 07:11:57;;;;;;;10.80;3.10;;;;;;;14.17;100.00;102469.16;5055102;28;20082;-65
2022/07/06 07:14:23;;;;;;;9.88;3.00;;;;;;;14.12;100.00;102465.53;5055379;28;20158;-66
2022/07/06 07:16:48;;;;;;;10.23;3.20;;;;;;;14.24;100.00;102473.72;5054854;28;20017;-66
2022/07/06 07:19:13;;;;;;;10.50;3.00;;;;;;;14.37;100.00;102473.88;5051507;28;20112;-68
2022/07/06 07:21:39;;;;;;;10.23;3.00;;;;;;;14.54;100.00;102468.81;5051528;28;20037;-68
2022/07/06 07:24:04;;;;;;;10.73;3.10;;;;;;;14.76;100.00;102470.00;5051936;28;20033;-69
2022/07/06 07:26:30;;;;;;;7.88;2.75;;;;;;;14.90;100.00;102470.19;5052500;28;20044;-67
2022/07/06 07:28:55;;;;;;;8.48;2.50;;;;;;;14.96;100.00;102465.81;5052652;28;20029;-64
2022/07/06 07:31:21;;;;;;;6.15;2.50;;;;;;;15.05;100.00;102464.16;5052660;28;20025;-66
2022/07/06 07:33:46;;;;;;;8.65;2.60;;;;;;;15.21;100.00;102471.41;5052726;28;20047;-64
2022/07/06 07:36:11;;;;;;;6.50;2.40;;;;;;;15.36;100.00;102467.13;5052517;28;20474;-65
2022/07/06 07:38:37;;;;;;;7.63;2.38;;;;;;;15.49;100.00;102469.03;5053107;28;20021;-64
2022/07/06 07:41:02;;;;;;;9.13;2.40;;;;;;;15.66;100.00;102478.09;5052255;28;20037;-65
2022/07/06 07:43:28;;;;;;;5.82;2.20;;;;;;;15.74;100.00;102477.25;5052263;28;20064;-66
2022/07/06 07:45:53;;;;;;;5.35;2.20;;;;;;;15.81;100.00;102465.81;5052706;28;20482;-64
2022/07/06 07:48:18;;;;;;;6.72;2.30;;;;;;;15.99;100.00;102470.41;5052540;28;20021;-65
2022/07/06 07:50:44;;;;;;;7.88;2.00;;;;;;;16.11;99.91;102477.59;5052207;28;20037;-64
2022/07/06 07:53:09;;;;;;;4.90;1.90;;;;;;;16.12;97.86;102474.94;5051712;28;20029;-64
2022/07/06 07:55:34;;;;;;;5.82;2.20;;;;;;;16.23;98.19;102463.44;5051759;28;20128;-64
2022/07/06 07:58:00;;;;;;;7.20;2.25;;;;;;;16.30;97.84;102471.50;5052372;28;20021;-64
2022/07/06 08:00:26;;;;;;;7.25;2.28;;;;;;;16.44;96.37;102473.34;5053765;28;20440;-65
2022/07/06 08:02:51;;;;;;;10.40;2.10;;;;;;;16.51;96.58;102476.09;5052090;28;20094;-66
2022/07/06 08:05:17;;;;;;;6.95;2.00;;;;;;;16.66;94.49;102471.69;5052384;28;20220;-66
2022/07/06 08:07:43;;;;;;;5.03;1.90;;;;;;;16.73;92.14;102463.72;5051617;28;20025;-66
2022/07/06 08:10:10;;;;;;;5.85;2.00;;;;;;;16.95;94.15;102450.50;5052051;28;20439;-65
2022/07/06 08:12:35;;;;;;;6.05;1.88;;;;;;;17.12;93.42;102446.97;5049609;28;20037;-66
2022/07/06 08:15:01;;;;;;;6.88;2.15;;;;;;;17.21;89.19;102444.31;5051231;28;20025;-64
2022/07/06 08:17:27;;;;;;;8.27;2.03;;;;;;;17.12;90.92;102446.97;5052277;28;20033;-65
2022/07/06 08:19:52;;;;;;;8.38;2.25;;;;;;;17.22;90.64;102454.13;5051957;28;20032;-64
2022/07/06 08:22:17;;;;;;;5.82;2.10;;;;;;;17.39;89.03;102457.72;5050381;28;20033;-64
2022/07/06 08:24:43;;;;;;;5.68;2.00;;;;;;;17.59;87.80;102455.06;5051291;28;20025;-64
2022/07/06 08:27:08;;;;;;;6.28;2.00;;;;;;;17.75;86.00;102455.97;5049705;28;20468;-64
2022/07/06 08:29:33;;;;;;;8.05;2.10;;;;;;;17.78;85.84;102458.63;5051517;28;20352;-65
2022/07/06 08:31:59;;;;;;;6.25;2.10;;;;;;;17.68;85.37;102453.25;5050646;28;20056;-64
2022/07/06 08:34:24;;;;;;;8.25;2.35;;;;;;;17.66;86.95;102447.91;5051619;28;20383;-64
2022/07/06 08:36:50;;;;;;;8.60;2.50;;;;;;;17.78;89.16;102450.59;5050783;28;20379;-65
2022/07/06 08:39:15;;;;;;;8.30;2.50;;;;;;;18.09;87.88;102455.94;5051609;28;20028;-65
2022/07/06 08:41:42;;;;;;;5.80;2.00;;;;;;;18.08;81.97;102455.97;5051068;28;20033;-65
2022/07/06 08:44:08;;;;;;;6.85;2.20;;;;;;;18.01;84.47;102451.50;5051902;28;20372;-65
2022/07/06 08:46:37;;;;;;;6.30;2.10;;;;;;;17.88;82.33;102453.25;5053179;28;20085;-65
2022/07/06 08:49:03;;;;;;;4.55;1.88;;;;;;;17.87;85.91;102449.72;5053510;28;20086;-65
2022/07/06 08:51:28;;;;;;;8.02;2.20;;;;;;;18.43;85.71;102445.16;5052861;28;20032;-64
2022/07/06 08:53:54;;;;;;;6.30;2.00;;;;;;;19.07;78.95;102437.75;5052730;28;20037;-66
2022/07/06 08:56:20;;;;;;;5.57;2.00;;;;;;;19.41;77.68;102432.19;5053021;28;20036;-64
2022/07/06 08:58:45;;;;;;;4.40;1.90;;;;;;;19.65;77.19;102435.56;5052801;28;20021;-64
2022/07/06 09:01:11;;;;;;;7.65;2.30;;;;;;;19.94;67.97;102440.72;5052935;28;20039;-64
2022/07/06 09:03:40;;;;;;;5.93;1.88;;;;;;;20.00;66.61;102446.00;5052746;28;20029;-64
2022/07/06 09:06:07;;;;;;;3.40;1.80;;;;;;;20.17;69.27;102439.59;5052996;28;20442;-64
2022/07/06 09:08:32;;;;;;;7.38;1.80;;;;;;;20.14;64.64;102445.88;5052726;28;20128;-64
2022/07/06 09:10:57;;;;;;;5.57;1.70;;;;;;;20.31;64.71;102439.44;5052586;28;20020;-64
2022/07/06 09:13:23;;;;;;;5.13;1.80;;;;;;;20.14;63.25;102443.19;5052631;28;20025;-64
2022/07/06 09:15:48;;;;;;;6.43;1.90;;;;;;;20.07;65.04;102437.91;5052784;28;20460;-65
2022/07/06 09:18:14;;;;;;;5.85;1.90;;;;;;;20.47;64.01;102435.66;5052567;28;20541;-65
2022/07/06 09:20:43;;;;;;;5.72;1.70;;;;;;;20.85;63.74;102438.81;5052586;28;20464;-64
2022/07/06 09:23:08;;;;;;;5.38;1.80;;;;;;;21.02;61.32;102435.88;5048835;28;20028;-65
2022/07/06 09:25:35;;;;;;;8.10;1.80;;;;;;;21.26;62.93;102440.03;5052339;28;20025;-65
2022/07/06 09:28:01;;;;;;;5.90;1.80;;;;;;;21.56;57.34;102435.97;5052354;28;20470;-64
2022/07/06 09:30:28;;;;;;;8.75;2.00;;;;;;;21.98;55.04;102435.25;5052707;28;20025;-64
2022/07/06 09:32:57;;;;;;;6.95;1.80;;;;;;;22.43;55.07;102445.22;5052358;28;20021;-65
2022/07/06 09:35:25;;;;;;;9.07;1.90;;;;;;;22.75;52.78;102447.22;5052266;28;20036;-65
2022/07/06 09:38:09;;;;;;;8.52;2.00;;;;;;;22.11;48.03;102452.94;5052589;28;20021;-64
2022/07/06 09:40:40;;;;;;;6.97;1.80;;;;;;;21.55;50.68;102442.28;5052674;28;20150;-65
2022/07/06 09:43:19;;;;;;;9.10;1.92;;;;;;;21.07;49.02;102445.66;5053435;28;20033;-65
2022/07/06 09:45:48;;;;;;;8.95;2.08;;;;;;;20.77;51.22;102446.97;5051144;28;20075;-65
2022/07/06 09:48:21;;;;;;;7.45;2.15;;;;;;;20.62;52.69;102458.78;5054289;28;20029;-65
2022/07/06 09:50:50;;;;;;;6.22;1.80;;;;;;;20.83;53.11;102449.56;5052537;28;20040;-65
2022/07/06 09:53:16;;;;;;;5.82;2.00;;;;;;;21.43;49.03;102453.19;5052604;28;20036;-65
2022/07/06 09:55:46;;;;;;;5.57;2.10;;;;;;;21.94;46.53;102458.66;5052705;28;20041;-66
2022/07/06 09:58:12;;;;;;;4.50;1.85;;;;;;;22.25;45.49;102451.78;5048901;28;20118;-66
2022/07/06 10:00:38;;;;;;;5.43;1.80;;;;;;;22.39;44.08;102454.25;5052293;28;20029;-66
2022/07/06 10:03:04;;;;;;;5.20;1.90;;;;;;;22.28;45.91;102459.84;5051908;28;20017;-66
2022/07/06 10:05:31;;;;;;;4.22;1.90;;;;;;;21.95;45.25;102456.84;5052322;28;20083;-65
2022/07/06 10:07:59;;;;;;;9.95;2.10;;;;;;;22.01;46.54;102448.66;5052448;28;20025;-65
2022/07/06 10:10:29;;;;;;;7.00;1.98;;;;;;;22.07;45.93;102455.72;5052245;28;20036;-65
2022/07/06 10:12:58;;;;;;;8.88;1.90;;;;;;;22.48;44.91;102453.19;5052144;28;20036;-65
2022/07/06 10:15:26;;;;;;;8.00;2.10;;;;;;;22.76;43.05;102445.41;5050127;28;20044;-66
2022/07/06 10:17:52;;;;;;;6.65;1.90;;;;;;;22.88;43.59;102458.63;5051764;28;20104;-65
2022/07/06 10:20:19;;;;;;;8.10;1.80;;;;;;;22.64;43.27;102457.34;5051562;28;20510;-65
2022/07/06 10:22:45;;;;;;;6.53;1.80;;;;;;;22.52;43.12;102460.28;5048032;28;20044;-65
2022/07/06 10:25:11;;;;;;;4.40;1.88;;;;;;;22.23;43.27;102465.28;5051501;28;20021;-65
2022/07/06 10:27:36;;;;;;;5.85;1.90;;;;;;;21.75;44.08;102457.19;5051676;28;20051;-65
2022/07/06 10:30:02;;;;;;;8.43;2.20;;;;;;;21.54;43.61;102450.38;5052046;28;20072;-66
2022/07/06 10:32:28;;;;;;;9.23;2.00;;;;;;;21.21;45.02;102448.13;5051635;28;20391;-66
2022/07/06 10:34:53;;;;;;;8.05;2.10;;;;;;;21.62;46.71;102452.94;5051728;28;20025;-66
2022/07/06 10:37:27;;;;;;;7.90;2.00;;;;;;;21.90;44.39;102459.63;5053814;28;20033;-65
2022/07/06 10:42:40;;;;;;;5.65;1.75;;;;;;;23.40;40.88;102452.97;5055170;28;20400;-66
2022/07/06 10:45:06;;;;;;;5.82;2.00;;;;;;;23.56;38.97;102449.00;5055402;28;20029;-66
2022/07/06 10:47:31;;;;;;;8.38;2.00;;;;;;;23.54;42.39;102456.22;5055442;28;20380;-66
2022/07/06 10:50:00;;;;;;;6.55;1.73;;;;;;;23.09;42.09;102453.66;5055221;28;20028;-65
2022/07/06 10:52:48;;;;;;;8.32;1.90;;;;;;;23.05;42.96;102454.66;5055213;28;20494;-66
2022/07/06 10:55:35;;;;;;;7.47;2.15;;;;;;;23.17;41.73;102448.13;5051004;28;20041;-66
2022/07/06 10:58:01;;;;;;;3.83;1.98;;;;;;;22.71;40.35;102450.03;5053633;28;20025;-65
2022/07/06 11:00:47;;;;;;;2.45;1.60;;;;;;;22.73;40.30;102445.47;5054926;28;20029;-65
2022/07/06 11:03:32;;;;;;;6.47;1.70;;;;;;;23.07;40.06;102442.91;5055103;28;20059;-65
2022/07/06 11:05:58;;;;;;;5.38;1.90;;;;;;;23.53;37.76;102438.25;5052672;28;20468;-65
2022/07/06 11:08:41;;;;;;;6.18;1.90;;;;;;;24.36;37.95;102437.88;5055410;28;20079;-65
2022/07/06 11:11:17;;;;;;;7.22;1.77;;;;;;;24.67;36.22;102440.63;5055153;28;20467;-65
2022/07/06 11:13:53;;;;;;;9.27;1.90;;;;;;;24.60;36.16;102433.63;5054925;28;20388;-65
2022/07/06 11:16:19;;;;;;;7.25;1.80;;;;;;;24.79;34.83;102433.06;5051671;28;20029;-65